Privateer — WYZ7447 — position and weather

sailwx.info

Track history (hours):
 
Tides and Currents Weather Stations Pressure Air Temp Water Temp Dewpoint Dewpoint Depression Visibility Wind Speed Wind Dir Waves Ship Positions

Privateer

Owner: SEVEN SEAS WHALE WATCH, GLOUCESTER, MA. More information available from US FCC via Universal Licensing System and Coast Guard Vessel Documentation Center.

Last reported at 2017-Dec-10 20:45 UTC. Time now 2017-Dec-12 06:35 UTC.
Position N 32°45' W 117°15'.

Length 20 m.

Type: Passenger vessel. MMSI: 367453620.

Date/timePositionNaut miles runAvg speedWind from/ knotsBaromVisibWave heightAir tempDewpointWater temp
2017-Dec-10 20:45N 32°45' W 117°15'311.0
2017-Dec-10 20:30N 32°46' W 117°19'4 8.5
2017-Dec-10 20:00N 32°46' W 117°24'0 0.9
2017-Dec-10 19:30N 32°45' W 117°23'1 2.5
2017-Dec-10 19:00N 32°44' W 117°23'7 0.4
2017-Dec-10 00:16N 32°46' W 117°15'2 8.8
2017-Dec-10 00:00N 32°47' W 117°17'510.4
2017-Dec-09 23:30N 32°50' W 117°22'1 2.8
2017-Dec-09 23:00N 32°50' W 117°24'3 5.9
2017-Dec-09 22:30N 32°47' W 117°24'8 4.9
2017-Dec-09 20:51N 32°46' W 117°15'3 9.4
2017-Dec-09 20:30N 32°46' W 117°18'2 4.6
2017-Dec-09 20:00N 32°47' W 117°21'2 3.3
2017-Dec-09 19:30N 32°47' W 117°23'3 6.4
2017-Dec-09 19:00N 32°43' W 117°22'4 0.2
2017-Dec-08 20:34N 32°46' W 117°18'110.6
2017-Dec-08 20:30N 32°46' W 117°19'5 9.9
2017-Dec-08 20:00N 32°48' W 117°25'1 2.0
2017-Dec-08 19:30N 32°48' W 117°26'2 3.9
2017-Dec-08 18:55N 32°48' W 117°23'  
2017-Dec-03 20:33N 32°47' W 117°19'111.4
2017-Dec-03 20:29N 32°47' W 117°20'3 6.0
2017-Dec-03 19:59N 32°48' W 117°23'1 2.1
2017-Dec-03 19:30N 32°49' W 117°23'2 3.4
2017-Dec-03 18:59N 32°49' W 117°21'9 0.4
2017-Dec-02 19:51N 32°41' W 117°26'4 6.2
2017-Dec-02 19:12N 32°44' W 117°23'3 0.1
2017-Dec-01 20:27N 32°46' W 117°19'3 5.2
2017-Dec-01 19:56N 32°47' W 117°22'5 7.4
2017-Dec-01 19:12N 32°42' W 117°23'2 9.1
2017-Dec-01 19:00N 32°44' W 117°24'  
Track history (hours):
 
Tides and Currents Weather Stations Pressure Air Temp Water Temp Dewpoint Dewpoint Depression Visibility Wind Speed Wind Dir Waves Ship Positions

Privateer

Owner: SEVEN SEAS WHALE WATCH, GLOUCESTER, MA. More information available from US FCC via Universal Licensing System and Coast Guard Vessel Documentation Center.

Last reported at 2017-Dec-10 20:45 UTC. Time now 2017-Dec-12 06:35 UTC.
Position N 32°45' W 117°15'.

Length 20 m.

Type: Passenger vessel. MMSI: 367453620.

Date/timePositionNaut miles runAvg speedWind from/ knotsBaromVisibWave heightAir tempDewpointWater temp
2017-Dec-10 20:45N 32°45' W 117°15'311.0
2017-Dec-10 20:30N 32°46' W 117°19'4 8.5
2017-Dec-10 20:00N 32°46' W 117°24'0 0.9
2017-Dec-10 19:30N 32°45' W 117°23'1 2.5
2017-Dec-10 19:00N 32°44' W 117°23'7 0.4
2017-Dec-10 00:16N 32°46' W 117°15'2 8.8
2017-Dec-10 00:00N 32°47' W 117°17'510.4
2017-Dec-09 23:30N 32°50' W 117°22'1 2.8
2017-Dec-09 23:00N 32°50' W 117°24'3 5.9
2017-Dec-09 22:30N 32°47' W 117°24'8 4.9
2017-Dec-09 20:51N 32°46' W 117°15'3 9.4
2017-Dec-09 20:30N 32°46' W 117°18'2 4.6
2017-Dec-09 20:00N 32°47' W 117°21'2 3.3
2017-Dec-09 19:30N 32°47' W 117°23'3 6.4
2017-Dec-09 19:00N 32°43' W 117°22'4 0.2
2017-Dec-08 20:34N 32°46' W 117°18'110.6
2017-Dec-08 20:30N 32°46' W 117°19'5 9.9
2017-Dec-08 20:00N 32°48' W 117°25'1 2.0
2017-Dec-08 19:30N 32°48' W 117°26'2 3.9
2017-Dec-08 18:55N 32°48' W 117°23'  
2017-Dec-03 20:33N 32°47' W 117°19'111.4
2017-Dec-03 20:29N 32°47' W 117°20'3 6.0
2017-Dec-03 19:59N 32°48' W 117°23'1 2.1
2017-Dec-03 19:30N 32°49' W 117°23'2 3.4
2017-Dec-03 18:59N 32°49' W 117°21'9 0.4
2017-Dec-02 19:51N 32°41' W 117°26'4 6.2
2017-Dec-02 19:12N 32°44' W 117°23'3 0.1
2017-Dec-01 20:27N 32°46' W 117°19'3 5.2
2017-Dec-01 19:56N 32°47' W 117°22'5 7.4
2017-Dec-01 19:12N 32°42' W 117°23'2 9.1
2017-Dec-01 19:00N 32°44' W 117°24'  

Dump ship's entire track history